sensor_id;sensor_type;location;lat;lon;timestamp;P1;durP1;ratioP1;P2;durP2;ratioP2
19113;SDS011;9689;51.052;13.772;2022-12-07T00:04:59;20.50;;;9.23;;
19113;SDS011;9689;51.052;13.772;2022-12-07T00:10:01;16.58;;;8.95;;
19113;SDS011;9689;51.052;13.772;2022-12-07T00:15:03;18.95;;;9.35;;
19113;SDS011;9689;51.052;13.772;2022-12-07T00:20:04;17.25;;;8.63;;
19113;SDS011;9689;51.052;13.772;2022-12-07T00:25:08;17.85;;;9.73;;
19113;SDS011;9689;51.052;13.772;2022-12-07T00:30:09;19.80;;;9.63;;
19113;SDS011;9689;51.052;13.772;2022-12-07T00:35:10;19.73;;;9.65;;
19113;SDS011;9689;51.052;13.772;2022-12-07T00:40:12;18.90;;;10.10;;
19113;SDS011;9689;51.052;13.772;2022-12-07T00:45:13;19.88;;;9.55;;
19113;SDS011;9689;51.052;13.772;2022-12-07T00:50:14;21.58;;;9.73;;
19113;SDS011;9689;51.052;13.772;2022-12-07T00:55:16;18.38;;;10.13;;
19113;SDS011;9689;51.052;13.772;2022-12-07T01:00:17;17.95;;;10.23;;
19113;SDS011;9689;51.052;13.772;2022-12-07T01:05:18;21.17;;;9.90;;
19113;SDS011;9689;51.052;13.772;2022-12-07T01:10:21;19.95;;;10.18;;
19113;SDS011;9689;51.052;13.772;2022-12-07T01:15:22;24.00;;;10.43;;
19113;SDS011;9689;51.052;13.772;2022-12-07T01:20:23;19.48;;;9.77;;
19113;SDS011;9689;51.052;13.772;2022-12-07T01:25:25;18.38;;;9.23;;
19113;SDS011;9689;51.052;13.772;2022-12-07T01:30:26;23.10;;;10.88;;
19113;SDS011;9689;51.052;13.772;2022-12-07T01:35:26;23.40;;;11.50;;
19113;SDS011;9689;51.052;13.772;2022-12-07T01:40:29;21.15;;;10.80;;
19113;SDS011;9689;51.052;13.772;2022-12-07T01:45:36;24.70;;;11.02;;
19113;SDS011;9689;51.052;13.772;2022-12-07T01:50:40;23.42;;;11.15;;
19113;SDS011;9689;51.052;13.772;2022-12-07T01:55:45;22.75;;;10.18;;
19113;SDS011;9689;51.052;13.772;2022-12-07T02:00:50;20.20;;;9.88;;
19113;SDS011;9689;51.052;13.772;2022-12-07T02:05:51;16.48;;;9.15;;
19113;SDS011;9689;51.052;13.772;2022-12-07T02:10:54;22.52;;;9.57;;
19113;SDS011;9689;51.052;13.772;2022-12-07T02:16:04;18.33;;;9.00;;
19113;SDS011;9689;51.052;13.772;2022-12-07T02:21:15;19.02;;;10.05;;
19113;SDS011;9689;51.052;13.772;2022-12-07T02:26:29;14.77;;;8.30;;
19113;SDS011;9689;51.052;13.772;2022-12-07T02:31:49;15.32;;;7.75;;
19113;SDS011;9689;51.052;13.772;2022-12-07T02:36:57;13.80;;;7.97;;
19113;SDS011;9689;51.052;13.772;2022-12-07T02:42:12;14.90;;;8.20;;
19113;SDS011;9689;51.052;13.772;2022-12-07T02:47:19;15.75;;;7.63;;
19113;SDS011;9689;51.052;13.772;2022-12-07T02:52:24;13.25;;;7.85;;
19113;SDS011;9689;51.052;13.772;2022-12-07T02:57:27;14.23;;;7.90;;
19113;SDS011;9689;51.052;13.772;2022-12-07T03:02:44;13.32;;;7.70;;
19113;SDS011;9689;51.052;13.772;2022-12-07T03:07:54;14.07;;;8.27;;
19113;SDS011;9689;51.052;13.772;2022-12-07T03:13:02;15.05;;;9.10;;
19113;SDS011;9689;51.052;13.772;2022-12-07T03:18:08;17.75;;;9.38;;
19113;SDS011;9689;51.052;13.772;2022-12-07T03:23:13;19.63;;;9.20;;
19113;SDS011;9689;51.052;13.772;2022-12-07T03:28:17;17.33;;;9.30;;
19113;SDS011;9689;51.052;13.772;2022-12-07T03:33:24;16.63;;;9.48;;
19113;SDS011;9689;51.052;13.772;2022-12-07T03:38:31;21.45;;;10.52;;
19113;SDS011;9689;51.052;13.772;2022-12-07T03:43:34;16.60;;;9.77;;
19113;SDS011;9689;51.052;13.772;2022-12-07T03:48:40;19.35;;;9.95;;
19113;SDS011;9689;51.052;13.772;2022-12-07T03:53:46;18.48;;;10.00;;
19113;SDS011;9689;51.052;13.772;2022-12-07T03:58:53;21.85;;;11.43;;
19113;SDS011;9689;51.052;13.772;2022-12-07T04:03:56;23.17;;;9.88;;
19113;SDS011;9689;51.052;13.772;2022-12-07T04:08:57;18.60;;;9.85;;
19113;SDS011;9689;51.052;13.772;2022-12-07T04:13:57;19.65;;;10.75;;
19113;SDS011;9689;51.052;13.772;2022-12-07T04:19:19;19.75;;;10.38;;
19113;SDS011;9689;51.052;13.772;2022-12-07T04:24:20;21.15;;;10.55;;
19113;SDS011;9689;51.052;13.772;2022-12-07T04:29:22;18.30;;;9.35;;
19113;SDS011;9689;51.052;13.772;2022-12-07T04:34:24;18.77;;;9.90;;
19113;SDS011;9689;51.052;13.772;2022-12-07T04:39:26;23.42;;;10.82;;
19113;SDS011;9689;51.052;13.772;2022-12-07T04:44:28;18.20;;;9.60;;
19113;SDS011;9689;51.052;13.772;2022-12-07T04:49:31;23.02;;;9.70;;
19113;SDS011;9689;51.052;13.772;2022-12-07T04:54:32;19.30;;;10.20;;
19113;SDS011;9689;51.052;13.772;2022-12-07T04:59:33;16.20;;;8.98;;
19113;SDS011;9689;51.052;13.772;2022-12-07T05:04:36;20.02;;;9.73;;
19113;SDS011;9689;51.052;13.772;2022-12-07T05:09:37;18.98;;;9.48;;
19113;SDS011;9689;51.052;13.772;2022-12-07T05:14:37;21.08;;;9.18;;
19113;SDS011;9689;51.052;13.772;2022-12-07T05:19:40;20.80;;;9.63;;
19113;SDS011;9689;51.052;13.772;2022-12-07T05:24:40;14.95;;;8.32;;
19113;SDS011;9689;51.052;13.772;2022-12-07T05:29:41;20.65;;;9.63;;
19113;SDS011;9689;51.052;13.772;2022-12-07T05:34:43;20.65;;;8.57;;
19113;SDS011;9689;51.052;13.772;2022-12-07T05:39:44;16.45;;;8.25;;
19113;SDS011;9689;51.052;13.772;2022-12-07T05:44:45;18.05;;;8.45;;
19113;SDS011;9689;51.052;13.772;2022-12-07T05:49:48;16.63;;;8.38;;
19113;SDS011;9689;51.052;13.772;2022-12-07T05:54:49;17.20;;;8.13;;
19113;SDS011;9689;51.052;13.772;2022-12-07T05:59:50;22.55;;;8.32;;
19113;SDS011;9689;51.052;13.772;2022-12-07T06:04:52;15.15;;;6.93;;
19113;SDS011;9689;51.052;13.772;2022-12-07T06:09:53;11.05;;;6.10;;
19113;SDS011;9689;51.052;13.772;2022-12-07T06:14:54;8.93;;;4.65;;
19113;SDS011;9689;51.052;13.772;2022-12-07T06:19:56;12.25;;;5.30;;
19113;SDS011;9689;51.052;13.772;2022-12-07T06:24:57;9.45;;;4.65;;
19113;SDS011;9689;51.052;13.772;2022-12-07T06:30:04;10.73;;;5.35;;
19113;SDS011;9689;51.052;13.772;2022-12-07T06:35:09;11.93;;;4.85;;
19113;SDS011;9689;51.052;13.772;2022-12-07T06:40:10;8.63;;;4.93;;
19113;SDS011;9689;51.052;13.772;2022-12-07T06:45:11;8.68;;;4.55;;
19113;SDS011;9689;51.052;13.772;2022-12-07T06:50:13;8.55;;;5.05;;
19113;SDS011;9689;51.052;13.772;2022-12-07T06:55:14;8.30;;;3.92;;
19113;SDS011;9689;51.052;13.772;2022-12-07T07:00:15;12.27;;;5.20;;
19113;SDS011;9689;51.052;13.772;2022-12-07T07:05:22;8.82;;;4.40;;
19113;SDS011;9689;51.052;13.772;2022-12-07T07:10:22;9.68;;;4.90;;
19113;SDS011;9689;51.052;13.772;2022-12-07T07:15:23;9.55;;;4.60;;
19113;SDS011;9689;51.052;13.772;2022-12-07T07:20:26;9.32;;;5.28;;
19113;SDS011;9689;51.052;13.772;2022-12-07T07:25:27;8.45;;;4.95;;
19113;SDS011;9689;51.052;13.772;2022-12-07T07:30:28;10.02;;;5.63;;
19113;SDS011;9689;51.052;13.772;2022-12-07T07:35:31;10.38;;;5.28;;
19113;SDS011;9689;51.052;13.772;2022-12-07T07:40:33;9.10;;;5.80;;
19113;SDS011;9689;51.052;13.772;2022-12-07T07:45:35;9.70;;;5.30;;
19113;SDS011;9689;51.052;13.772;2022-12-07T07:50:37;8.40;;;5.00;;
19113;SDS011;9689;51.052;13.772;2022-12-07T07:55:38;9.63;;;5.53;;
19113;SDS011;9689;51.052;13.772;2022-12-07T08:00:39;10.35;;;5.97;;
19113;SDS011;9689;51.052;13.772;2022-12-07T08:05:41;11.00;;;6.03;;
19113;SDS011;9689;51.052;13.772;2022-12-07T08:10:42;12.50;;;7.05;;
19113;SDS011;9689;51.052;13.772;2022-12-07T08:15:43;13.38;;;7.45;;
19113;SDS011;9689;51.052;13.772;2022-12-07T08:20:47;12.05;;;7.55;;
19113;SDS011;9689;51.052;13.772;2022-12-07T08:25:48;11.20;;;7.25;;
19113;SDS011;9689;51.052;13.772;2022-12-07T08:30:48;17.02;;;8.35;;
19113;SDS011;9689;51.052;13.772;2022-12-07T08:35:51;13.80;;;7.85;;
19113;SDS011;9689;51.052;13.772;2022-12-07T08:40:53;13.90;;;7.55;;
19113;SDS011;9689;51.052;13.772;2022-12-07T08:45:56;13.43;;;7.38;;
19113;SDS011;9689;51.052;13.772;2022-12-07T08:51:07;11.95;;;7.47;;
19113;SDS011;9689;51.052;13.772;2022-12-07T08:56:08;16.33;;;7.63;;
19113;SDS011;9689;51.052;13.772;2022-12-07T09:01:09;10.55;;;7.00;;
19113;SDS011;9689;51.052;13.772;2022-12-07T09:06:12;12.05;;;6.60;;
19113;SDS011;9689;51.052;13.772;2022-12-07T09:11:13;10.68;;;6.13;;
19113;SDS011;9689;51.052;13.772;2022-12-07T09:16:14;14.15;;;7.72;;
19113;SDS011;9689;51.052;13.772;2022-12-07T09:21:16;14.63;;;6.72;;
19113;SDS011;9689;51.052;13.772;2022-12-07T09:26:17;14.00;;;6.45;;
19113;SDS011;9689;51.052;13.772;2022-12-07T09:31:18;14.40;;;6.35;;
19113;SDS011;9689;51.052;13.772;2022-12-07T09:36:24;13.65;;;5.97;;
19113;SDS011;9689;51.052;13.772;2022-12-07T09:41:26;13.77;;;5.93;;
19113;SDS011;9689;51.052;13.772;2022-12-07T09:46:28;10.05;;;5.28;;
19113;SDS011;9689;51.052;13.772;2022-12-07T09:51:36;12.05;;;5.40;;
19113;SDS011;9689;51.052;13.772;2022-12-07T09:56:37;9.50;;;5.32;;
19113;SDS011;9689;51.052;13.772;2022-12-07T10:01:38;10.88;;;4.72;;
19113;SDS011;9689;51.052;13.772;2022-12-07T10:06:41;13.68;;;5.03;;
19113;SDS011;9689;51.052;13.772;2022-12-07T10:11:58;12.88;;;5.50;;
19113;SDS011;9689;51.052;13.772;2022-12-07T10:17:00;14.02;;;5.55;;
19113;SDS011;9689;51.052;13.772;2022-12-07T10:22:09;11.93;;;4.72;;
19113;SDS011;9689;51.052;13.772;2022-12-07T10:27:17;14.77;;;5.63;;
19113;SDS011;9689;51.052;13.772;2022-12-07T10:32:28;9.68;;;4.63;;
19113;SDS011;9689;51.052;13.772;2022-12-07T10:37:33;11.23;;;4.70;;
19113;SDS011;9689;51.052;13.772;2022-12-07T10:42:41;9.52;;;5.13;;
19113;SDS011;9689;51.052;13.772;2022-12-07T10:47:42;10.32;;;5.13;;
19113;SDS011;9689;51.052;13.772;2022-12-07T10:52:58;12.38;;;5.43;;
19113;SDS011;9689;51.052;13.772;2022-12-07T10:58:30;13.68;;;5.80;;
19113;SDS011;9689;51.052;13.772;2022-12-07T11:03:45;10.07;;;6.20;;
19113;SDS011;9689;51.052;13.772;2022-12-07T11:14:53;10.90;;;5.05;;
19113;SDS011;9689;51.052;13.772;2022-12-07T11:20:02;10.70;;;4.90;;
19113;SDS011;9689;51.052;13.772;2022-12-07T11:25:18;10.55;;;4.60;;
19113;SDS011;9689;51.052;13.772;2022-12-07T11:30:31;10.60;;;4.60;;
19113;SDS011;9689;51.052;13.772;2022-12-07T11:35:40;12.18;;;5.63;;
19113;SDS011;9689;51.052;13.772;2022-12-07T11:40:49;10.32;;;5.28;;
19113;SDS011;9689;51.052;13.772;2022-12-07T11:45:58;14.80;;;5.57;;
19113;SDS011;9689;51.052;13.772;2022-12-07T11:51:04;9.38;;;4.82;;
19113;SDS011;9689;51.052;13.772;2022-12-07T11:56:11;14.00;;;5.68;;
19113;SDS011;9689;51.052;13.772;2022-12-07T12:01:20;14.15;;;7.03;;
19113;SDS011;9689;51.052;13.772;2022-12-07T12:06:29;14.02;;;6.05;;
19113;SDS011;9689;51.052;13.772;2022-12-07T12:11:35;18.23;;;6.53;;
19113;SDS011;9689;51.052;13.772;2022-12-07T12:16:54;17.67;;;7.10;;
19113;SDS011;9689;51.052;13.772;2022-12-07T12:22:10;14.98;;;6.57;;
19113;SDS011;9689;51.052;13.772;2022-12-07T12:27:17;17.85;;;7.05;;
19113;SDS011;9689;51.052;13.772;2022-12-07T12:32:29;16.08;;;7.28;;
19113;SDS011;9689;51.052;13.772;2022-12-07T12:37:43;13.02;;;6.88;;
19113;SDS011;9689;51.052;13.772;2022-12-07T12:42:46;15.65;;;6.38;;
19113;SDS011;9689;51.052;13.772;2022-12-07T12:47:53;9.50;;;3.72;;
19113;SDS011;9689;51.052;13.772;2022-12-07T12:53:00;8.90;;;2.50;;
19113;SDS011;9689;51.052;13.772;2022-12-07T12:58:29;3.20;;;1.80;;
19113;SDS011;9689;51.052;13.772;2022-12-07T13:03:36;2.72;;;1.50;;
19113;SDS011;9689;51.052;13.772;2022-12-07T13:08:37;3.50;;;1.77;;
19113;SDS011;9689;51.052;13.772;2022-12-07T13:13:41;10.80;;;1.70;;
19113;SDS011;9689;51.052;13.772;2022-12-07T13:18:44;3.55;;;1.50;;
19113;SDS011;9689;51.052;13.772;2022-12-07T13:23:52;2.75;;;1.35;;
19113;SDS011;9689;51.052;13.772;2022-12-07T13:29:04;3.97;;;1.92;;
19113;SDS011;9689;51.052;13.772;2022-12-07T13:34:31;3.50;;;2.10;;
19113;SDS011;9689;51.052;13.772;2022-12-07T13:39:33;4.25;;;2.72;;
19113;SDS011;9689;51.052;13.772;2022-12-07T13:44:39;3.88;;;2.50;;
19113;SDS011;9689;51.052;13.772;2022-12-07T13:49:47;5.97;;;3.10;;
19113;SDS011;9689;51.052;13.772;2022-12-07T13:54:55;4.50;;;3.40;;
19113;SDS011;9689;51.052;13.772;2022-12-07T13:59:57;9.27;;;3.92;;
19113;SDS011;9689;51.052;13.772;2022-12-07T14:05:07;6.43;;;4.28;;
19113;SDS011;9689;51.052;13.772;2022-12-07T14:10:22;8.23;;;4.53;;
19113;SDS011;9689;51.052;13.772;2022-12-07T14:15:25;7.40;;;4.60;;
19113;SDS011;9689;51.052;13.772;2022-12-07T14:20:33;8.15;;;4.57;;
19113;SDS011;9689;51.052;13.772;2022-12-07T14:25:45;9.85;;;4.72;;
19113;SDS011;9689;51.052;13.772;2022-12-07T14:30:49;10.75;;;5.25;;
19113;SDS011;9689;51.052;13.772;2022-12-07T14:35:52;12.93;;;5.03;;
19113;SDS011;9689;51.052;13.772;2022-12-07T14:40:54;10.10;;;4.63;;
19113;SDS011;9689;51.052;13.772;2022-12-07T14:46:16;12.95;;;5.45;;
19113;SDS011;9689;51.052;13.772;2022-12-07T14:51:18;10.98;;;5.63;;
19113;SDS011;9689;51.052;13.772;2022-12-07T14:56:45;13.00;;;5.38;;
19113;SDS011;9689;51.052;13.772;2022-12-07T15:01:51;10.93;;;5.63;;
19113;SDS011;9689;51.052;13.772;2022-12-07T15:06:56;10.95;;;5.22;;
19113;SDS011;9689;51.052;13.772;2022-12-07T15:11:58;10.48;;;4.40;;
19113;SDS011;9689;51.052;13.772;2022-12-07T15:17:02;13.07;;;4.15;;
19113;SDS011;9689;51.052;13.772;2022-12-07T15:22:12;11.30;;;3.53;;
19113;SDS011;9689;51.052;13.772;2022-12-07T15:27:13;14.68;;;3.35;;
19113;SDS011;9689;51.052;13.772;2022-12-07T15:32:14;6.25;;;2.53;;
19113;SDS011;9689;51.052;13.772;2022-12-07T15:37:16;5.68;;;2.50;;
19113;SDS011;9689;51.052;13.772;2022-12-07T15:42:18;7.82;;;2.47;;
19113;SDS011;9689;51.052;13.772;2022-12-07T15:47:22;7.75;;;2.25;;
19113;SDS011;9689;51.052;13.772;2022-12-07T15:52:24;7.30;;;3.13;;
19113;SDS011;9689;51.052;13.772;2022-12-07T15:57:25;7.90;;;3.65;;
19113;SDS011;9689;51.052;13.772;2022-12-07T16:02:26;10.23;;;3.33;;
19113;SDS011;9689;51.052;13.772;2022-12-07T16:07:29;7.93;;;3.38;;
19113;SDS011;9689;51.052;13.772;2022-12-07T16:12:29;7.15;;;3.08;;
19113;SDS011;9689;51.052;13.772;2022-12-07T16:17:30;6.25;;;2.60;;
19113;SDS011;9689;51.052;13.772;2022-12-07T16:22:32;6.10;;;3.08;;
19113;SDS011;9689;51.052;13.772;2022-12-07T16:27:34;9.32;;;3.03;;
19113;SDS011;9689;51.052;13.772;2022-12-07T16:32:35;7.65;;;3.15;;
19113;SDS011;9689;51.052;13.772;2022-12-07T16:37:37;9.38;;;3.20;;
19113;SDS011;9689;51.052;13.772;2022-12-07T16:42:38;5.68;;;3.08;;
19113;SDS011;9689;51.052;13.772;2022-12-07T16:47:39;6.85;;;3.58;;
19113;SDS011;9689;51.052;13.772;2022-12-07T16:52:41;7.25;;;3.25;;
19113;SDS011;9689;51.052;13.772;2022-12-07T16:57:42;9.02;;;2.78;;
19113;SDS011;9689;51.052;13.772;2022-12-07T17:02:43;5.20;;;2.40;;
19113;SDS011;9689;51.052;13.772;2022-12-07T17:07:46;6.68;;;2.55;;
19113;SDS011;9689;51.052;13.772;2022-12-07T17:12:47;7.15;;;2.30;;
19113;SDS011;9689;51.052;13.772;2022-12-07T17:17:51;8.23;;;2.40;;
19113;SDS011;9689;51.052;13.772;2022-12-07T17:22:54;6.30;;;2.25;;
19113;SDS011;9689;51.052;13.772;2022-12-07T17:27:55;9.18;;;1.75;;
19113;SDS011;9689;51.052;13.772;2022-12-07T17:32:56;7.53;;;1.67;;
19113;SDS011;9689;51.052;13.772;2022-12-07T17:37:58;5.53;;;1.83;;
19113;SDS011;9689;51.052;13.772;2022-12-07T17:42:59;13.60;;;2.40;;
19113;SDS011;9689;51.052;13.772;2022-12-07T17:48:00;6.90;;;2.55;;
19113;SDS011;9689;51.052;13.772;2022-12-07T17:53:03;7.90;;;2.83;;
19113;SDS011;9689;51.052;13.772;2022-12-07T17:58:09;6.75;;;2.42;;
19113;SDS011;9689;51.052;13.772;2022-12-07T18:03:10;6.50;;;2.75;;
19113;SDS011;9689;51.052;13.772;2022-12-07T18:08:12;5.47;;;2.30;;
19113;SDS011;9689;51.052;13.772;2022-12-07T18:13:13;10.10;;;3.10;;
19113;SDS011;9689;51.052;13.772;2022-12-07T18:18:32;7.03;;;2.83;;
19113;SDS011;9689;51.052;13.772;2022-12-07T18:23:35;4.90;;;2.72;;
19113;SDS011;9689;51.052;13.772;2022-12-07T18:28:35;5.05;;;2.30;;
19113;SDS011;9689;51.052;13.772;2022-12-07T18:33:36;8.95;;;2.33;;
19113;SDS011;9689;51.052;13.772;2022-12-07T18:38:39;3.63;;;2.10;;
19113;SDS011;9689;51.052;13.772;2022-12-07T18:43:40;15.85;;;7.30;;
19113;SDS011;9689;51.052;13.772;2022-12-07T18:48:41;6.68;;;2.20;;
19113;SDS011;9689;51.052;13.772;2022-12-07T18:53:44;9.10;;;2.50;;
19113;SDS011;9689;51.052;13.772;2022-12-07T18:58:48;5.43;;;2.08;;
19113;SDS011;9689;51.052;13.772;2022-12-07T19:04:03;5.95;;;1.77;;
19113;SDS011;9689;51.052;13.772;2022-12-07T19:09:06;3.25;;;1.90;;
19113;SDS011;9689;51.052;13.772;2022-12-07T19:14:07;5.03;;;1.73;;
19113;SDS011;9689;51.052;13.772;2022-12-07T19:19:08;6.32;;;1.98;;
19113;SDS011;9689;51.052;13.772;2022-12-07T19:24:11;4.13;;;2.10;;
19113;SDS011;9689;51.052;13.772;2022-12-07T19:29:19;4.47;;;2.38;;
19113;SDS011;9689;51.052;13.772;2022-12-07T19:34:20;6.63;;;2.20;;
19113;SDS011;9689;51.052;13.772;2022-12-07T19:39:23;8.40;;;2.72;;
19113;SDS011;9689;51.052;13.772;2022-12-07T19:44:24;12.02;;;3.08;;
19113;SDS011;9689;51.052;13.772;2022-12-07T19:49:29;8.23;;;3.00;;
19113;SDS011;9689;51.052;13.772;2022-12-07T19:54:32;9.73;;;3.70;;
19113;SDS011;9689;51.052;13.772;2022-12-07T19:59:34;6.65;;;3.53;;
19113;SDS011;9689;51.052;13.772;2022-12-07T20:04:35;9.52;;;3.65;;
19113;SDS011;9689;51.052;13.772;2022-12-07T20:09:37;9.77;;;3.72;;
19113;SDS011;9689;51.052;13.772;2022-12-07T20:14:38;8.40;;;3.30;;
19113;SDS011;9689;51.052;13.772;2022-12-07T20:19:39;8.10;;;2.90;;
19113;SDS011;9689;51.052;13.772;2022-12-07T20:24:41;9.23;;;3.40;;
19113;SDS011;9689;51.052;13.772;2022-12-07T20:29:42;10.35;;;3.33;;
19113;SDS011;9689;51.052;13.772;2022-12-07T20:34:43;8.85;;;2.83;;
19113;SDS011;9689;51.052;13.772;2022-12-07T20:39:46;10.95;;;5.35;;
19113;SDS011;9689;51.052;13.772;2022-12-07T20:44:47;8.15;;;3.22;;
19113;SDS011;9689;51.052;13.772;2022-12-07T20:49:48;6.15;;;2.63;;
19113;SDS011;9689;51.052;13.772;2022-12-07T20:54:50;9.65;;;3.40;;
19113;SDS011;9689;51.052;13.772;2022-12-07T20:59:51;7.25;;;3.10;;
19113;SDS011;9689;51.052;13.772;2022-12-07T21:04:52;5.20;;;3.25;;
19113;SDS011;9689;51.052;13.772;2022-12-07T21:09:54;12.50;;;3.35;;
19113;SDS011;9689;51.052;13.772;2022-12-07T21:14:55;8.98;;;3.15;;
19113;SDS011;9689;51.052;13.772;2022-12-07T21:19:55;16.00;;;3.40;;
19113;SDS011;9689;51.052;13.772;2022-12-07T21:24:57;13.00;;;3.72;;
19113;SDS011;9689;51.052;13.772;2022-12-07T21:29:58;7.90;;;3.40;;
19113;SDS011;9689;51.052;13.772;2022-12-07T21:34:59;9.70;;;3.40;;
19113;SDS011;9689;51.052;13.772;2022-12-07T21:40:02;10.88;;;3.15;;
19113;SDS011;9689;51.052;13.772;2022-12-07T21:45:04;6.47;;;3.15;;
19113;SDS011;9689;51.052;13.772;2022-12-07T21:50:06;10.52;;;3.53;;
19113;SDS011;9689;51.052;13.772;2022-12-07T21:55:09;13.88;;;3.70;;
19113;SDS011;9689;51.052;13.772;2022-12-07T22:00:10;8.48;;;3.47;;
19113;SDS011;9689;51.052;13.772;2022-12-07T22:05:12;8.27;;;3.25;;
19113;SDS011;9689;51.052;13.772;2022-12-07T22:10:14;6.75;;;2.85;;
19113;SDS011;9689;51.052;13.772;2022-12-07T22:15:26;15.02;;;3.60;;
19113;SDS011;9689;51.052;13.772;2022-12-07T22:20:28;6.97;;;3.50;;
19113;SDS011;9689;51.052;13.772;2022-12-07T22:25:30;8.05;;;3.83;;
19113;SDS011;9689;51.052;13.772;2022-12-07T22:30:31;9.40;;;3.63;;
19113;SDS011;9689;51.052;13.772;2022-12-07T22:35:32;11.45;;;3.17;;
19113;SDS011;9689;51.052;13.772;2022-12-07T22:40:34;8.60;;;3.17;;
19113;SDS011;9689;51.052;13.772;2022-12-07T22:45:34;11.73;;;2.75;;
19113;SDS011;9689;51.052;13.772;2022-12-07T22:50:37;8.48;;;3.13;;
19113;SDS011;9689;51.052;13.772;2022-12-07T22:55:39;8.18;;;3.05;;
19113;SDS011;9689;51.052;13.772;2022-12-07T23:00:40;10.32;;;3.42;;
19113;SDS011;9689;51.052;13.772;2022-12-07T23:05:42;15.15;;;3.65;;
19113;SDS011;9689;51.052;13.772;2022-12-07T23:10:45;6.47;;;2.88;;
19113;SDS011;9689;51.052;13.772;2022-12-07T23:15:47;7.03;;;2.85;;
19113;SDS011;9689;51.052;13.772;2022-12-07T23:20:48;9.85;;;2.85;;
19113;SDS011;9689;51.052;13.772;2022-12-07T23:25:50;7.00;;;3.22;;
19113;SDS011;9689;51.052;13.772;2022-12-07T23:30:52;7.13;;;2.67;;
19113;SDS011;9689;51.052;13.772;2022-12-07T23:35:52;10.05;;;3.75;;
19113;SDS011;9689;51.052;13.772;2022-12-07T23:40:54;4.97;;;2.78;;
19113;SDS011;9689;51.052;13.772;2022-12-07T23:45:55;12.25;;;3.45;;
19113;SDS011;9689;51.052;13.772;2022-12-07T23:50:56;10.15;;;3.60;;
19113;SDS011;9689;51.052;13.772;2022-12-07T23:55:59;8.15;;;3.40;;
